Time;durP1;ratioP1;P1;durP2;ratioP2;P2;SDS_P1;SDS_P2;PMS_P1;PMS_P2;Temp;Humidity;BMP_temperature;BMP_pressure;BME280_temperature;BME280_humidity;BME280_pressure;Samples;Min_cycle;Max_cycle;Signal;HPM_P1;HPM_P2
2021/04/02 00:00:40;;;;;;;2.65;1.15;;;;;;;;;;5013180;28;20022;-57
2021/04/02 00:03:10;;;;;;;2.67;1.30;;;;;;;;;;5014020;28;20122;-57
2021/04/02 00:05:36;;;;;;;2.50;0.88;;;;;;;;;;5013561;28;20049;-57
2021/04/02 00:08:02;;;;;;;1.75;0.90;;;;;;;;;;5013673;28;20025;-56
2021/04/02 00:10:32;;;;;;;3.10;0.88;;;;;;;;;;5012821;28;20030;-57
2021/04/02 00:12:58;;;;;;;3.72;0.90;;;;;;;;;;5013945;28;20034;-57
2021/04/02 00:15:24;;;;;;;2.47;1.10;;;;;;;;;;5013513;28;20021;-54
2021/04/02 00:17:52;;;;;;;4.82;1.10;;;;;;;;;;5013368;28;20482;-55
2021/04/02 00:20:19;;;;;;;3.72;0.80;;;;;;;;;;5013400;28;20113;-57
2021/04/02 00:22:46;;;;;;;2.95;1.20;;;;;;;;;;5013455;28;20037;-56
2021/04/02 00:25:12;;;;;;;4.55;1.00;;;;;;;;;;5003894;28;20104;-57
2021/04/02 00:27:39;;;;;;;5.22;1.30;;;;;;;;;;5013580;28;20030;-58
2021/04/02 00:30:25;;;;;;;2.65;1.05;;;;;;;;;;5013179;28;20112;-58
2021/04/02 00:32:51;;;;;;;5.95;0.98;;;;;;;;;;4992900;28;20144;-57
2021/04/02 00:35:17;;;;;;;3.38;1.17;;;;;;;;;;5012293;28;20493;-58
2021/04/02 00:37:43;;;;;;;4.72;1.67;;;;;;;;;;5008738;28;20034;-59
2021/04/02 00:40:15;;;;;;;4.05;1.30;;;;;;;;;;5008036;28;20030;-57
2021/04/02 00:42:41;;;;;;;2.97;1.25;;;;;;;;;;5009121;28;20136;-58
2021/04/02 00:45:07;;;;;;;4.07;1.10;;;;;;;;;;5013139;28;20033;-56
2021/04/02 00:47:33;;;;;;;3.83;1.50;;;;;;;;;;5013249;28;20441;-58
2021/04/02 00:49:59;;;;;;;3.00;1.20;;;;;;;;;;5012661;28;20030;-57
2021/04/02 00:52:25;;;;;;;1.88;1.23;;;;;;;;;;5012528;28;20036;-58
2021/04/02 00:54:51;;;;;;;3.58;1.10;;;;;;;;;;4994564;28;20493;-57
2021/04/02 00:57:17;;;;;;;2.38;1.17;;;;;;;;;;5012556;28;20056;-57
2021/04/02 00:59:43;;;;;;;3.05;1.67;;;;;;;;;;5012238;28;20030;-58
2021/04/02 01:02:09;;;;;;;2.30;1.17;;;;;;;;;;5013660;28;20030;-52
2021/04/02 01:04:35;;;;;;;2.67;1.08;;;;;;;;;;5012442;28;20037;-53
2021/04/02 01:07:02;;;;;;;2.90;1.20;;;;;;;;;;5012541;28;20030;-53
2021/04/02 01:09:28;;;;;;;2.78;1.42;;;;;;;;;;5012470;28;20052;-56
2021/04/02 01:11:54;;;;;;;3.17;1.75;;;;;;;;;;5012036;28;20034;-53
2021/04/02 01:14:22;;;;;;;2.22;1.10;;;;;;;;;;5012794;28;20417;-52
2021/04/02 01:16:48;;;;;;;3.15;1.30;;;;;;;;;;5012531;28;20624;-52
2021/04/02 01:19:16;;;;;;;2.42;1.50;;;;;;;;;;5012112;28;20037;-52
2021/04/02 01:21:42;;;;;;;3.58;1.42;;;;;;;;;;4994755;28;20458;-54
2021/04/02 01:24:14;;;;;;;4.88;1.30;;;;;;;;;;5006370;28;20081;-52
2021/04/02 01:26:49;;;;;;;2.67;1.33;;;;;;;;;;5009525;28;20417;-52
2021/04/02 01:29:15;;;;;;;4.38;1.33;;;;;;;;;;5012766;28;20030;-52
2021/04/02 01:31:44;;;;;;;4.50;1.52;;;;;;;;;;5011716;28;20026;-52
2021/04/02 01:34:11;;;;;;;3.45;1.38;;;;;;;;;;5011321;28;20050;-52
2021/04/02 01:36:40;;;;;;;4.72;1.92;;;;;;;;;;5007805;28;20113;-53
2021/04/02 01:39:08;;;;;;;3.80;1.80;;;;;;;;;;5012046;28;20045;-53
2021/04/02 01:41:36;;;;;;;5.40;2.30;;;;;;;;;;5007856;28;20025;-56
2021/04/02 01:44:03;;;;;;;4.10;1.75;;;;;;;;;;5012256;28;20029;-51
2021/04/02 01:46:29;;;;;;;6.47;2.17;;;;;;;;;;5011601;28;20801;-51
2021/04/02 01:48:58;;;;;;;3.95;1.70;;;;;;;;;;5012422;28;20022;-53
2021/04/02 01:51:26;;;;;;;2.22;1.48;;;;;;;;;;5012118;28;20057;-52
2021/04/02 01:53:53;;;;;;;3.28;1.73;;;;;;;;;;5011652;28;20033;-52
2021/04/02 01:56:19;;;;;;;3.72;1.85;;;;;;;;;;5011656;28;20487;-55
2021/04/02 01:58:46;;;;;;;5.18;2.22;;;;;;;;;;5011701;28;20088;-55
2021/04/02 02:01:14;;;;;;;7.68;2.28;;;;;;;;;;5012021;28;20433;-52
2021/04/02 02:03:42;;;;;;;5.70;1.90;;;;;;;;;;5012165;28;20022;-52
2021/04/02 02:06:08;;;;;;;2.80;1.80;;;;;;;;;;5011831;28;20097;-54
2021/04/02 02:08:35;;;;;;;3.15;1.52;;;;;;;;;;5012110;28;20490;-54
2021/04/02 02:11:09;;;;;;;4.53;2.10;;;;;;;;;;5011683;28;20037;-54
2021/04/02 02:13:36;;;;;;;3.63;2.03;;;;;;;;;;5012054;28;20038;-52
2021/04/02 02:16:04;;;;;;;3.58;1.95;;;;;;;;;;5011628;28;20026;-51
2021/04/02 02:18:31;;;;;;;5.90;2.15;;;;;;;;;;5004123;28;20126;-56
2021/04/02 02:20:57;;;;;;;3.85;2.00;;;;;;;;;;5011748;28;20060;-51
2021/04/02 02:23:23;;;;;;;3.25;1.90;;;;;;;;;;5012162;28;20022;-52
2021/04/02 02:25:49;;;;;;;4.95;2.20;;;;;;;;;;5011692;28;20026;-52
2021/04/02 02:28:15;;;;;;;3.70;2.42;;;;;;;;;;5016284;28;20081;-52
2021/04/02 02:30:43;;;;;;;3.40;2.40;;;;;;;;;;5015474;28;20030;-53
2021/04/02 02:33:10;;;;;;;5.05;3.20;;;;;;;;;;5007376;28;20401;-53
2021/04/02 02:35:36;;;;;;;5.10;2.47;;;;;;;;;;5015024;28;20044;-52
2021/04/02 02:38:02;;;;;;;6.35;3.30;;;;;;;;;;5010978;28;20032;-51
2021/04/02 02:40:32;;;;;;;5.28;2.97;;;;;;;;;;5010307;28;20045;-52
2021/04/02 02:42:59;;;;;;;4.63;3.05;;;;;;;;;;5015585;28;20057;-52
2021/04/02 02:45:25;;;;;;;3.88;2.95;;;;;;;;;;5015246;28;20050;-53
2021/04/02 02:47:51;;;;;;;8.05;2.90;;;;;;;;;;5015466;28;20034;-52
2021/04/02 02:50:20;;;;;;;5.05;2.67;;;;;;;;;;5015272;28;20029;-53
2021/04/02 02:52:48;;;;;;;6.35;3.72;;;;;;;;;;5015693;28;20030;-51
2021/04/02 02:55:15;;;;;;;5.13;2.97;;;;;;;;;;5011377;28;20057;-54
2021/04/02 02:57:42;;;;;;;6.93;3.72;;;;;;;;;;5014982;28;20030;-56
2021/04/02 03:00:19;;;;;;;6.85;3.40;;;;;;;;;;5013710;28;20058;-56
2021/04/02 03:02:47;;;;;;;5.75;3.20;;;;;;;;;;5014501;28;20026;-54
2021/04/02 03:05:21;;;;;;;7.55;3.38;;;;;;;;;;5014847;28;20105;-52
2021/04/02 03:07:51;;;;;;;6.68;3.30;;;;;;;;;;5014781;28;20522;-54
2021/04/02 03:10:17;;;;;;;6.07;3.30;;;;;;;;;;5013587;28;20125;-52
2021/04/02 03:12:43;;;;;;;7.47;3.13;;;;;;;;;;5015007;28;20127;-53
2021/04/02 03:15:12;;;;;;;4.80;2.78;;;;;;;;;;5014470;28;20057;-53
2021/04/02 03:17:39;;;;;;;3.70;2.60;;;;;;;;;;5014006;28;20478;-54
2021/04/02 03:20:05;;;;;;;7.78;3.15;;;;;;;;;;5014830;28;20125;-51
2021/04/02 03:22:32;;;;;;;9.77;3.40;;;;;;;;;;5014606;28;20546;-54
2021/04/02 03:24:59;;;;;;;4.63;2.88;;;;;;;;;;5012913;28;20046;-54
2021/04/02 03:27:29;;;;;;;4.90;3.20;;;;;;;;;;5013623;28;20030;-52
2021/04/02 03:29:55;;;;;;;5.43;2.95;;;;;;;;;;5014454;28;20371;-57
2021/04/02 03:32:23;;;;;;;4.90;2.92;;;;;;;;;;5014590;28;20358;-53
2021/04/02 03:34:50;;;;;;;6.78;2.90;;;;;;;;;;5014114;28;20061;-53
2021/04/02 03:37:17;;;;;;;10.15;3.85;;;;;;;;;;4996234;28;20109;-53
2021/04/02 03:39:45;;;;;;;6.55;3.10;;;;;;;;;;5014342;28;20026;-54
2021/04/02 03:42:12;;;;;;;6.82;3.13;;;;;;;;;;5014039;28;20414;-54
2021/04/02 03:44:39;;;;;;;6.32;3.28;;;;;;;;;;5014879;28;20113;-55
2021/04/02 03:47:08;;;;;;;6.80;3.03;;;;;;;;;;5013787;28;20466;-52
2021/04/02 03:49:36;;;;;;;4.05;2.67;;;;;;;;;;5014393;28;20109;-54
2021/04/02 03:52:05;;;;;;;8.35;3.20;;;;;;;;;;5014041;28;20057;-55
2021/04/02 03:54:33;;;;;;;6.05;2.90;;;;;;;;;;5013911;28;20529;-56
2021/04/02 03:57:00;;;;;;;5.05;2.80;;;;;;;;;;5014046;28;20100;-53
2021/04/02 03:59:27;;;;;;;7.38;3.33;;;;;;;;;;5014183;28;20109;-52
2021/04/02 04:01:53;;;;;;;6.90;2.97;;;;;;;;;;5012812;28;20030;-54
2021/04/02 04:04:23;;;;;;;5.75;3.30;;;;;;;;;;5013720;28;20036;-55
2021/04/02 04:06:50;;;;;;;7.50;3.55;;;;;;;;;;5013765;28;20038;-52
2021/04/02 04:09:17;;;;;;;7.68;3.35;;;;;;;;;;5013278;28;20551;-52
2021/04/02 04:11:44;;;;;;;4.20;2.85;;;;;;;;;;5014163;28;20478;-53
2021/04/02 04:14:11;;;;;;;6.13;3.03;;;;;;;;;;5013955;28;20107;-53
2021/04/02 04:16:38;;;;;;;6.82;3.53;;;;;;;;;;5013956;28;20123;-52
2021/04/02 04:19:04;;;;;;;5.30;3.13;;;;;;;;;;5013556;28;20041;-54
2021/04/02 04:21:38;;;;;;;8.23;3.35;;;;;;;;;;5013692;28;20089;-56
2021/04/02 04:24:05;;;;;;;7.38;3.38;;;;;;;;;;5012819;28;20077;-56
2021/04/02 04:26:31;;;;;;;4.85;3.30;;;;;;;;;;5003841;28;20508;-52
2021/04/02 04:28:58;;;;;;;7.90;3.28;;;;;;;;;;5013386;28;20100;-53
2021/04/02 04:31:24;;;;;;;5.57;3.08;;;;;;;;;;5014146;28;20392;-53
2021/04/02 04:33:52;;;;;;;6.97;3.22;;;;;;;;;;5013552;28;20029;-52
2021/04/02 04:36:19;;;;;;;7.95;3.53;;;;;;;;;;5013557;28;20030;-53
2021/04/02 04:38:45;;;;;;;6.15;3.53;;;;;;;;;;4995580;28;20116;-53
2021/04/02 04:41:11;;;;;;;8.23;3.92;;;;;;;;;;5008505;28;20060;-52
2021/04/02 04:43:38;;;;;;;4.60;3.03;;;;;;;;;;5013117;28;20160;-52
2021/04/02 04:46:04;;;;;;;7.47;3.17;;;;;;;;;;5007608;28;20033;-55
2021/04/02 04:48:30;;;;;;;7.47;3.53;;;;;;;;;;5012506;28;20041;-56
2021/04/02 04:50:57;;;;;;;5.97;3.33;;;;;;;;;;5012970;28;20033;-56
2021/04/02 04:53:28;;;;;;;7.45;3.67;;;;;;;;;;5012864;28;20107;-56
2021/04/02 04:55:55;;;;;;;7.57;3.53;;;;;;;;;;5013067;28;20030;-54
2021/04/02 04:58:21;;;;;;;7.97;3.90;;;;;;;;;;5012279;28;20104;-52
2021/04/02 05:00:48;;;;;;;5.15;3.40;;;;;;;;;;5013112;28;20048;-55
2021/04/02 05:03:18;;;;;;;5.05;3.35;;;;;;;;;;5011762;28;20022;-54
2021/04/02 05:05:45;;;;;;;7.07;4.45;;;;;;;;;;5012434;28;20037;-54
2021/04/02 05:08:14;;;;;;;6.18;4.18;;;;;;;;;;5010496;28;20081;-57
2021/04/02 05:10:41;;;;;;;6.60;4.13;;;;;;;;;;5011067;28;20037;-54
2021/04/02 05:13:07;;;;;;;10.35;5.18;;;;;;;;;;5012271;28;20125;-57
2021/04/02 05:15:34;;;;;;;7.13;4.38;;;;;;;;;;5011282;28;20076;-52
2021/04/02 05:18:01;;;;;;;9.95;5.18;;;;;;;;;;5010474;28;20100;-53
2021/04/02 05:20:47;;;;;;;10.88;5.28;;;;;;;;;;5011436;28;20104;-54
2021/04/02 05:23:14;;;;;;;12.02;5.60;;;;;;;;;;5011323;28;20022;-52
2021/04/02 05:25:40;;;;;;;10.43;5.07;;;;;;;;;;4997812;28;20046;-53
2021/04/02 05:28:07;;;;;;;8.23;4.68;;;;;;;;;;5012111;28;20037;-53
2021/04/02 05:30:34;;;;;;;9.13;5.70;;;;;;;;;;5012068;28;20455;-52
2021/04/02 05:33:00;;;;;;;10.70;5.22;;;;;;;;;;5011320;28;20463;-52
2021/04/02 05:35:26;;;;;;;12.65;6.50;;;;;;;;;;5011865;28;20767;-52
2021/04/02 05:37:52;;;;;;;18.00;6.60;;;;;;;;;;5009701;28;20470;-53
2021/04/02 05:40:18;;;;;;;16.33;6.45;;;;;;;;;;5008712;28;20042;-56
2021/04/02 05:42:51;;;;;;;14.02;7.10;;;;;;;;;;5012110;28;20021;-57
2021/04/02 05:45:19;;;;;;;15.38;7.32;;;;;;;;;;5010708;28;20651;-53
2021/04/02 05:47:45;;;;;;;18.02;6.88;;;;;;;;;;5012309;28;20084;-52
2021/04/02 05:50:11;;;;;;;10.98;6.68;;;;;;;;;;5011427;28;20033;-52
2021/04/02 05:52:38;;;;;;;12.23;5.85;;;;;;;;;;5011734;28;20125;-56
2021/04/02 05:55:08;;;;;;;13.93;7.03;;;;;;;;;;5012064;28;20184;-53
2021/04/02 05:57:34;;;;;;;12.18;6.57;;;;;;;;;;5010503;28;20113;-52
2021/04/02 06:00:00;;;;;;;11.63;6.38;;;;;;;;;;5012051;28;20164;-52
2021/04/02 06:02:26;;;;;;;12.25;6.47;;;;;;;;;;5011818;28;20026;-52
2021/04/02 06:04:52;;;;;;;11.23;6.55;;;;;;;;;;5011146;28;20051;-53
2021/04/02 06:07:18;;;;;;;14.43;6.43;;;;;;;;;;5011718;28;20033;-54
2021/04/02 06:09:44;;;;;;;14.70;6.78;;;;;;;;;;5011710;28;20022;-53
2021/04/02 06:12:13;;;;;;;8.00;6.07;;;;;;;;;;5011657;28;20434;-52
2021/04/02 06:14:39;;;;;;;10.05;6.05;;;;;;;;;;5011795;28;20077;-52
2021/04/02 06:17:05;;;;;;;13.27;6.32;;;;;;;;;;5010466;28;20057;-52
2021/04/02 06:19:31;;;;;;;11.32;6.40;;;;;;;;;;5012107;28;20030;-53
2021/04/02 06:21:57;;;;;;;14.50;6.43;;;;;;;;;;5012082;28;20030;-53
2021/04/02 06:24:43;;;;;;;12.00;6.30;;;;;;;;;;5007443;28;20039;-55
2021/04/02 06:27:13;;;;;;;10.75;7.13;;;;;;;;;;5006641;28;20096;-53
2021/04/02 06:29:43;;;;;;;13.68;7.05;;;;;;;;;;5011997;28;20073;-54
2021/04/02 06:32:12;;;;;;;12.75;6.47;;;;;;;;;;5010803;28;20033;-52
2021/04/02 06:34:48;;;;;;;10.98;6.63;;;;;;;;;;5011875;28;20038;-53
2021/04/02 06:37:18;;;;;;;11.73;6.75;;;;;;;;;;5005091;28;20045;-56
2021/04/02 06:39:53;;;;;;;10.38;6.43;;;;;;;;;;5009258;28;20084;-53
2021/04/02 06:42:32;;;;;;;13.32;7.28;;;;;;;;;;5011442;28;20536;-53
2021/04/02 06:44:59;;;;;;;12.15;6.57;;;;;;;;;;5006376;28;20061;-52
2021/04/02 06:47:32;;;;;;;10.85;6.57;;;;;;;;;;5011157;28;20441;-55
2021/04/02 06:49:59;;;;;;;12.40;8.05;;;;;;;;;;5011324;28;20065;-53
2021/04/02 06:52:25;;;;;;;11.13;6.50;;;;;;;;;;5010512;28;20096;-56
2021/04/02 06:54:52;;;;;;;13.00;7.97;;;;;;;;;;5011814;28;20474;-52
2021/04/02 06:57:19;;;;;;;11.10;6.68;;;;;;;;;;5010878;28;20022;-53
2021/04/02 06:59:47;;;;;;;11.55;7.07;;;;;;;;;;5010249;28;20100;-53
2021/04/02 07:02:15;;;;;;;11.25;6.68;;;;;;;;;;5010649;28;20033;-53
2021/04/02 07:04:42;;;;;;;14.25;7.28;;;;;;;;;;5000077;28;20026;-52
2021/04/02 07:07:10;;;;;;;11.65;6.70;;;;;;;;;;4991776;28;20034;-52
2021/04/02 07:09:40;;;;;;;10.13;6.35;;;;;;;;;;5012409;28;20109;-52
2021/04/02 07:12:07;;;;;;;10.32;5.88;;;;;;;;;;5015040;28;20109;-53
2021/04/02 07:14:33;;;;;;;8.27;5.38;;;;;;;;;;5006429;28;20032;-52
2021/04/02 07:17:00;;;;;;;10.20;5.38;;;;;;;;;;5010461;28;20044;-52
2021/04/02 07:19:27;;;;;;;8.25;5.20;;;;;;;;;;5013190;28;20522;-52
2021/04/02 07:21:53;;;;;;;9.82;5.40;;;;;;;;;;5013894;28;20030;-53
2021/04/02 07:24:20;;;;;;;11.18;5.40;;;;;;;;;;5013886;28;20085;-56
2021/04/02 07:26:47;;;;;;;7.15;5.07;;;;;;;;;;5013859;28;20034;-52
2021/04/02 07:29:13;;;;;;;11.63;5.75;;;;;;;;;;5013610;28;20034;-50
2021/04/02 07:31:40;;;;;;;10.27;5.85;;;;;;;;;;5012529;28;20038;-53
2021/04/02 07:34:06;;;;;;;8.80;4.90;;;;;;;;;;5013742;28;20374;-52
2021/04/02 07:36:34;;;;;;;7.97;5.05;;;;;;;;;;5014640;28;20034;-56
2021/04/02 07:39:03;;;;;;;10.20;5.05;;;;;;;;;;5006099;28;20057;-53
2021/04/02 07:41:29;;;;;;;8.95;5.18;;;;;;;;;;5013883;28;20030;-56
2021/04/02 07:43:57;;;;;;;10.07;5.70;;;;;;;;;;5014064;28;20121;-48
2021/04/02 07:46:30;;;;;;;11.05;4.95;;;;;;;;;;5014024;28;20026;-49
2021/04/02 07:49:00;;;;;;;8.82;4.88;;;;;;;;;;5014315;28;20117;-50
2021/04/02 07:51:40;;;;;;;6.43;4.78;;;;;;;;;;5014243;28;20117;-48
2021/04/02 07:54:12;;;;;;;7.47;4.60;;;;;;;;;;5014009;28;20037;-48
2021/04/02 07:56:38;;;;;;;7.13;4.63;;;;;;;;;;5014274;28;20018;-47
2021/04/02 07:59:05;;;;;;;7.43;4.68;;;;;;;;;;5013466;28;20413;-49
2021/04/02 08:01:32;;;;;;;7.57;5.25;;;;;;;;;;5014314;28;20366;-47
2021/04/02 08:04:01;;;;;;;8.20;5.55;;;;;;;;;;5013880;28;20030;-47
2021/04/02 08:06:32;;;;;;;7.78;5.00;;;;;;;;;;5013333;28;20430;-48
2021/04/02 08:09:00;;;;;;;8.40;5.50;;;;;;;;;;5013613;28;20414;-51
2021/04/02 08:11:31;;;;;;;9.23;5.25;;;;;;;;;;5014061;28;20076;-50
2021/04/02 08:14:00;;;;;;;7.60;5.57;;;;;;;;;;5010462;28;20026;-47
2021/04/02 08:16:46;;;;;;;7.15;4.95;;;;;;;;;;4995714;28;20030;-49
2021/04/02 08:19:18;;;;;;;7.82;4.93;;;;;;;;;;5003249;28;20562;-48
2021/04/02 08:21:46;;;;;;;7.53;5.10;;;;;;;;;;5012519;28;20045;-50
2021/04/02 08:24:13;;;;;;;9.25;4.97;;;;;;;;;;5012806;28;20053;-48
2021/04/02 08:26:40;;;;;;;8.75;5.03;;;;;;;;;;5013463;28;20406;-49
2021/04/02 08:29:07;;;;;;;7.95;4.63;;;;;;;;;;5013227;28;20047;-48
2021/04/02 08:31:35;;;;;;;7.82;5.03;;;;;;;;;;5013614;28;20029;-48
2021/04/02 08:34:01;;;;;;;9.95;4.93;;;;;;;;;;5012625;28;20034;-48
2021/04/02 08:36:28;;;;;;;8.88;4.88;;;;;;;;;;5013340;28;20026;-47
2021/04/02 08:38:55;;;;;;;9.43;4.35;;;;;;;;;;5012888;28;20022;-47
2021/04/02 08:41:22;;;;;;;6.60;4.68;;;;;;;;;;5013451;28;20137;-48
2021/04/02 08:43:50;;;;;;;7.32;4.45;;;;;;;;;;5013146;28;20482;-48
2021/04/02 08:46:16;;;;;;;7.93;4.90;;;;;;;;;;5011379;28;20542;-50
2021/04/02 08:48:46;;;;;;;9.82;4.60;;;;;;;;;;5009271;28;20113;-47
2021/04/02 08:51:21;;;;;;;7.57;4.22;;;;;;;;;;5010476;28;20105;-48
2021/04/02 08:53:47;;;;;;;6.60;4.57;;;;;;;;;;5010616;28;20029;-48
2021/04/02 08:56:17;;;;;;;6.75;4.25;;;;;;;;;;5011529;28;20695;-50
2021/04/02 08:58:44;;;;;;;6.25;3.95;;;;;;;;;;5012255;28;20038;-47
2021/04/02 09:01:10;;;;;;;6.03;3.70;;;;;;;;;;5012584;28;20034;-48
2021/04/02 09:03:36;;;;;;;5.35;3.90;;;;;;;;;;5009279;28;20018;-48
2021/04/02 09:06:02;;;;;;;6.25;3.60;;;;;;;;;;5012372;28;20370;-50
2021/04/02 09:08:28;;;;;;;4.95;3.55;;;;;;;;;;5011967;28;20755;-48
2021/04/02 09:10:55;;;;;;;5.28;3.90;;;;;;;;;;5010858;28;20025;-48
2021/04/02 09:13:40;;;;;;;6.18;3.35;;;;;;;;;;5011597;28;20030;-48
2021/04/02 09:16:07;;;;;;;5.80;3.65;;;;;;;;;;5011415;28;20084;-47
2021/04/02 09:18:33;;;;;;;5.13;3.42;;;;;;;;;;5010194;28;20177;-48
2021/04/02 09:21:00;;;;;;;6.53;3.78;;;;;;;;;;5010211;28;20061;-47
2021/04/02 09:23:26;;;;;;;7.60;3.72;;;;;;;;;;5010513;28;20030;-47
2021/04/02 09:25:53;;;;;;;5.43;3.63;;;;;;;;;;5008523;28;20054;-48
2021/04/02 09:28:23;;;;;;;4.82;3.30;;;;;;;;;;5007524;28;20033;-48
2021/04/02 09:30:49;;;;;;;4.72;2.90;;;;;;;;;;5011579;28;20048;-48
2021/04/02 09:33:19;;;;;;;6.57;2.90;;;;;;;;;;5011021;28;20033;-51
2021/04/02 09:35:45;;;;;;;3.95;2.92;;;;;;;;;;5011248;28;20097;-48
2021/04/02 09:38:11;;;;;;;3.70;3.05;;;;;;;;;;5003633;28;20141;-49
2021/04/02 09:40:38;;;;;;;3.45;2.78;;;;;;;;;;5007368;28;20081;-48
2021/04/02 09:43:04;;;;;;;5.25;2.90;;;;;;;;;;4993703;28;20037;-48
2021/04/02 09:45:30;;;;;;;5.35;3.15;;;;;;;;;;5010954;28;20026;-48
2021/04/02 09:47:58;;;;;;;4.28;3.10;;;;;;;;;;5012026;28;20048;-48
2021/04/02 09:50:25;;;;;;;4.05;2.63;;;;;;;;;;5012088;28;20402;-48
2021/04/02 09:52:51;;;;;;;5.80;2.75;;;;;;;;;;5011758;28;20121;-48
2021/04/02 09:55:18;;;;;;;3.40;2.58;;;;;;;;;;5010779;28;20065;-48
2021/04/02 09:57:44;;;;;;;2.88;2.08;;;;;;;;;;5010924;28;20088;-48
2021/04/02 10:00:11;;;;;;;3.70;2.50;;;;;;;;;;5008567;28;20040;-48
2021/04/02 10:02:38;;;;;;;2.72;2.17;;;;;;;;;;5009296;28;20109;-51
2021/04/02 10:05:05;;;;;;;2.90;1.88;;;;;;;;;;5011797;28;20025;-52
2021/04/02 10:07:31;;;;;;;2.85;1.95;;;;;;;;;;5011203;28;20057;-52
2021/04/02 10:09:57;;;;;;;12.07;2.08;;;;;;;;;;5011427;28;20033;-50
2021/04/02 10:12:23;;;;;;;3.83;1.40;;;;;;;;;;5012207;28;20026;-50
2021/04/02 10:14:49;;;;;;;1.60;1.50;;;;;;;;;;4998426;28;20061;-50
2021/04/02 10:17:16;;;;;;;2.08;1.52;;;;;;;;;;5009669;28;20049;-53
2021/04/02 10:19:44;;;;;;;4.35;1.60;;;;;;;;;;5011667;28;20026;-50
2021/04/02 10:22:10;;;;;;;2.60;1.67;;;;;;;;;;5010884;28;20034;-55
2021/04/02 10:24:39;;;;;;;2.60;1.50;;;;;;;;;;5011359;28;20038;-55
2021/04/02 10:27:06;;;;;;;3.17;1.75;;;;;;;;;;5003239;28;20482;-56
2021/04/02 10:29:32;;;;;;;2.90;1.80;;;;;;;;;;5011170;28;20026;-59
2021/04/02 10:31:58;;;;;;;3.63;1.77;;;;;;;;;;5008799;28;20082;-59
2021/04/02 10:34:24;;;;;;;2.83;1.85;;;;;;;;;;5008875;28;20029;-59
2021/04/02 10:36:50;;;;;;;2.30;1.75;;;;;;;;;;5007473;28;20033;-59
2021/04/02 10:39:16;;;;;;;3.17;1.90;;;;;;;;;;5010399;28;20437;-58
2021/04/02 10:41:42;;;;;;;3.47;2.13;;;;;;;;;;5011330;28;20415;-59
2021/04/02 10:44:08;;;;;;;4.50;2.20;;;;;;;;;;5013441;28;20030;-60
2021/04/02 10:46:34;;;;;;;2.70;2.00;;;;;;;;;;5014065;28;20371;-58
2021/04/02 10:49:00;;;;;;;3.35;2.10;;;;;;;;;;5014536;28;20033;-59
2021/04/02 10:51:27;;;;;;;4.85;2.10;;;;;;;;;;5012864;28;20080;-60
2021/04/02 10:54:00;;;;;;;5.82;2.30;;;;;;;;;;5014308;28;20021;-58
2021/04/02 10:56:27;;;;;;;5.10;2.35;;;;;;;;;;5014823;28;20089;-57
2021/04/02 10:58:53;;;;;;;3.88;1.88;;;;;;;;;;5015446;28;20065;-58
2021/04/02 11:01:19;;;;;;;3.00;2.00;;;;;;;;;;5013587;28;20521;-56
2021/04/02 11:03:45;;;;;;;3.47;1.95;;;;;;;;;;5013944;28;20037;-59
2021/04/02 11:06:11;;;;;;;2.83;1.40;;;;;;;;;;5012683;28;20056;-60
2021/04/02 11:08:37;;;;;;;2.40;1.67;;;;;;;;;;5013017;28;20053;-58
2021/04/02 11:11:03;;;;;;;2.67;1.55;;;;;;;;;;5014778;28;20485;-57
2021/04/02 11:13:29;;;;;;;5.28;1.20;;;;;;;;;;5014795;28;20038;-58
2021/04/02 11:15:55;;;;;;;2.60;1.23;;;;;;;;;;5014868;28;20049;-59
2021/04/02 11:18:21;;;;;;;1.23;0.80;;;;;;;;;;5014796;28;20109;-58
2021/04/02 11:20:47;;;;;;;1.98;1.20;;;;;;;;;;5015125;28;20100;-59
2021/04/02 11:23:16;;;;;;;3.05;0.88;;;;;;;;;;5014761;28;20457;-58
2021/04/02 11:25:42;;;;;;;1.60;1.02;;;;;;;;;;5002664;28;20074;-57
2021/04/02 11:28:08;;;;;;;1.23;0.50;;;;;;;;;;5014831;28;20066;-56
2021/04/02 11:30:34;;;;;;;1.75;0.90;;;;;;;;;;5014680;28;20022;-56
2021/04/02 11:33:00;;;;;;;3.97;0.70;;;;;;;;;;5014559;28;20030;-57
2021/04/02 11:35:26;;;;;;;3.22;0.80;;;;;;;;;;5014606;28;20040;-56
2021/04/02 11:37:52;;;;;;;2.05;0.82;;;;;;;;;;5014757;28;20482;-56
2021/04/02 11:40:18;;;;;;;3.67;0.40;;;;;;;;;;5014831;28;20033;-57
2021/04/02 11:42:44;;;;;;;1.42;0.50;;;;;;;;;;5014737;28;20065;-58
2021/04/02 11:45:11;;;;;;;0.80;0.70;;;;;;;;;;5014140;28;20057;-56
2021/04/02 11:47:37;;;;;;;3.33;0.90;;;;;;;;;;5014511;28;20049;-57
2021/04/02 11:50:05;;;;;;;1.92;0.80;;;;;;;;;;5014290;28;20036;-56
2021/04/02 11:52:31;;;;;;;2.90;0.70;;;;;;;;;;5014591;28;20034;-57
2021/04/02 11:54:57;;;;;;;1.88;1.08;;;;;;;;;;5014068;28;20096;-57
2021/04/02 11:57:23;;;;;;;1.10;0.40;;;;;;;;;;5014475;28;20026;-57
2021/04/02 11:59:49;;;;;;;2.38;0.55;;;;;;;;;;5014267;28;20493;-56
2021/04/02 12:02:15;;;;;;;0.65;0.40;;;;;;;;;;5014108;28;20040;-55
2021/04/02 12:04:41;;;;;;;1.05;0.50;;;;;;;;;;5014554;28;20026;-55
2021/04/02 12:07:07;;;;;;;1.55;0.52;;;;;;;;;;5014098;28;20026;-56
2021/04/02 12:09:33;;;;;;;8.55;0.60;;;;;;;;;;5007981;28;20037;-57
2021/04/02 12:11:59;;;;;;;0.77;0.40;;;;;;;;;;5007817;28;20080;-57
2021/04/02 12:14:25;;;;;;;0.55;0.43;;;;;;;;;;5014112;28;20540;-55
2021/04/02 12:16:52;;;;;;;0.90;0.40;;;;;;;;;;5008593;28;20026;-57
2021/04/02 12:19:18;;;;;;;3.42;0.50;;;;;;;;;;5001339;28;20025;-55
2021/04/02 12:21:44;;;;;;;1.88;0.55;;;;;;;;;;5013897;28;20029;-57
2021/04/02 12:24:10;;;;;;;4.93;0.47;;;;;;;;;;5012312;28;20057;-56
2021/04/02 12:26:36;;;;;;;0.73;0.30;;;;;;;;;;5013853;28;20026;-57
2021/04/02 12:29:02;;;;;;;2.10;0.43;;;;;;;;;;5013792;28;20029;-55
2021/04/02 12:31:28;;;;;;;0.80;0.40;;;;;;;;;;5013086;28;20097;-54
2021/04/02 12:33:54;;;;;;;1.10;0.40;;;;;;;;;;5013581;28;20391;-55
2021/04/02 12:36:20;;;;;;;0.95;0.35;;;;;;;;;;5013369;28;20680;-57
2021/04/02 12:38:46;;;;;;;1.02;0.30;;;;;;;;;;4996149;28;20033;-57
2021/04/02 12:41:12;;;;;;;0.85;0.47;;;;;;;;;;5013670;28;20164;-56
2021/04/02 12:43:38;;;;;;;0.98;0.20;;;;;;;;;;5013226;28;20045;-55
2021/04/02 12:46:04;;;;;;;2.30;0.30;;;;;;;;;;5013015;28;20370;-56
2021/04/02 12:48:31;;;;;;;0.50;0.17;;;;;;;;;;5013565;28;20025;-56
2021/04/02 12:50:58;;;;;;;0.90;0.50;;;;;;;;;;5012103;28;20081;-55
2021/04/02 12:53:24;;;;;;;0.95;0.20;;;;;;;;;;5001938;28;20022;-54
2021/04/02 12:55:50;;;;;;;0.15;0.10;;;;;;;;;;5012927;28;20037;-55
2021/04/02 12:58:17;;;;;;;0.40;0.17;;;;;;;;;;5013085;28;20370;-55
2021/04/02 13:00:43;;;;;;;0.25;0.17;;;;;;;;;;5012896;28;20049;-57
2021/04/02 13:03:09;;;;;;;3.22;0.35;;;;;;;;;;5013091;28;20040;-55
2021/04/02 13:05:35;;;;;;;0.63;0.20;;;;;;;;;;5011478;28;20204;-57
2021/04/02 13:08:01;;;;;;;0.68;0.30;;;;;;;;;;5010589;28;20030;-56
2021/04/02 13:10:27;;;;;;;0.57;0.30;;;;;;;;;;5009273;28;20568;-56
2021/04/02 13:12:54;;;;;;;0.77;0.30;;;;;;;;;;5012355;28;20038;-58
2021/04/02 13:15:21;;;;;;;0.70;0.20;;;;;;;;;;5012535;28;20042;-56
2021/04/02 13:17:47;;;;;;;1.58;0.38;;;;;;;;;;5006734;28;20037;-55
2021/04/02 13:20:15;;;;;;;0.77;0.43;;;;;;;;;;5011196;28;20038;-56
2021/04/02 13:22:41;;;;;;;0.57;0.38;;;;;;;;;;5012371;28;20029;-57
2021/04/02 13:25:07;;;;;;;1.25;0.63;;;;;;;;;;5007959;28;20499;-54
2021/04/02 13:27:33;;;;;;;1.60;0.68;;;;;;;;;;5012697;28;20406;-57
2021/04/02 13:30:08;;;;;;;3.38;0.70;;;;;;;;;;5012794;28;20030;-57
2021/04/02 13:32:35;;;;;;;3.20;0.80;;;;;;;;;;5012961;28;20037;-56
2021/04/02 13:35:01;;;;;;;1.30;0.70;;;;;;;;;;5012436;28;20057;-57
2021/04/02 13:37:27;;;;;;;1.80;0.90;;;;;;;;;;5011589;28;20083;-57
2021/04/02 13:39:53;;;;;;;3.05;1.17;;;;;;;;;;5011548;28;21600;-55
2021/04/02 13:42:19;;;;;;;4.30;0.70;;;;;;;;;;5012575;28;20029;-55
2021/04/02 13:44:45;;;;;;;3.05;1.20;;;;;;;;;;5011534;28;20018;-54
2021/04/02 13:47:11;;;;;;;2.85;1.30;;;;;;;;;;5011813;28;20018;-56
2021/04/02 13:49:36;;;;;;;6.18;1.80;;;;;;;;;;5012257;28;20480;-57
2021/04/02 13:52:03;;;;;;;4.85;3.20;;;;;;;;;;5010846;28;20040;-57
2021/04/02 13:54:28;;;;;;;5.55;3.30;;;;;;;;;;5009526;28;20038;-57
2021/04/02 13:56:54;;;;;;;7.38;3.67;;;;;;;;;;5011514;28;20048;-57
2021/04/02 13:59:20;;;;;;;5.68;3.72;;;;;;;;;;5011998;28;20034;-55
2021/04/02 14:01:47;;;;;;;11.43;3.67;;;;;;;;;;5011936;28;20144;-57
2021/04/02 14:04:12;;;;;;;6.50;3.80;;;;;;;;;;5011561;28;20061;-57
2021/04/02 14:06:38;;;;;;;5.85;3.05;;;;;;;;;;5011229;28;20030;-56
2021/04/02 14:09:05;;;;;;;5.45;3.20;;;;;;;;;;5010395;28;20061;-58
2021/04/02 14:11:31;;;;;;;4.22;2.75;;;;;;;;;;5011705;28;20121;-57
2021/04/02 14:13:57;;;;;;;6.63;2.97;;;;;;;;;;5011955;28;20022;-57
2021/04/02 14:16:23;;;;;;;9.43;3.38;;;;;;;;;;5009344;28;20029;-56
2021/04/02 14:18:49;;;;;;;7.20;3.45;;;;;;;;;;5011537;28;20026;-54
2021/04/02 14:21:15;;;;;;;12.85;2.90;;;;;;;;;;5015411;28;20355;-55
2021/04/02 14:23:41;;;;;;;7.93;3.10;;;;;;;;;;5015448;28;20041;-56
2021/04/02 14:26:07;;;;;;;6.72;2.70;;;;;;;;;;5008342;28;20454;-55
2021/04/02 14:28:33;;;;;;;6.43;2.17;;;;;;;;;;5014992;28;20033;-56
2021/04/02 14:30:59;;;;;;;6.45;2.20;;;;;;;;;;5014464;28;20026;-53
2021/04/02 14:33:25;;;;;;;3.75;1.65;;;;;;;;;;5003306;28;20053;-55
2021/04/02 14:35:51;;;;;;;7.75;1.83;;;;;;;;;;5014675;28;20530;-57
2021/04/02 14:38:17;;;;;;;5.97;1.70;;;;;;;;;;5015500;28;20034;-58
2021/04/02 14:40:43;;;;;;;6.45;1.80;;;;;;;;;;5014146;28;20532;-60